sensor_id;sensor_type;location;lat;lon;timestamp;P1;durP1;ratioP1;P2;durP2;ratioP2
20241;SDS011;10279;46.388;8.116;2023-04-03T00:01:07;1.60;;;0.73;;
20241;SDS011;10279;46.388;8.116;2023-04-03T00:03:34;0.80;;;0.80;;
20241;SDS011;10279;46.388;8.116;2023-04-03T00:06:03;0.70;;;0.70;;
20241;SDS011;10279;46.388;8.116;2023-04-03T00:08:33;0.87;;;0.80;;
20241;SDS011;10279;46.388;8.116;2023-04-03T00:11:00;1.10;;;0.80;;
20241;SDS011;10279;46.388;8.116;2023-04-03T00:13:29;0.90;;;0.77;;
20241;SDS011;10279;46.388;8.116;2023-04-03T00:15:56;2.77;;;0.80;;
20241;SDS011;10279;46.388;8.116;2023-04-03T00:18:24;0.70;;;0.70;;
20241;SDS011;10279;46.388;8.116;2023-04-03T00:20:51;1.00;;;0.70;;
20241;SDS011;10279;46.388;8.116;2023-04-03T00:23:19;0.67;;;0.63;;
20241;SDS011;10279;46.388;8.116;2023-04-03T00:25:46;0.80;;;0.80;;
20241;SDS011;10279;46.388;8.116;2023-04-03T00:28:14;0.60;;;0.60;;
20241;SDS011;10279;46.388;8.116;2023-04-03T00:30:41;1.03;;;0.93;;
20241;SDS011;10279;46.388;8.116;2023-04-03T00:33:11;0.70;;;0.70;;
20241;SDS011;10279;46.388;8.116;2023-04-03T00:35:39;1.13;;;0.70;;
20241;SDS011;10279;46.388;8.116;2023-04-03T00:38:07;0.70;;;0.70;;
20241;SDS011;10279;46.388;8.116;2023-04-03T00:40:38;2.20;;;0.60;;
20241;SDS011;10279;46.388;8.116;2023-04-03T00:43:16;0.70;;;0.70;;
20241;SDS011;10279;46.388;8.116;2023-04-03T00:45:48;0.70;;;0.70;;
20241;SDS011;10279;46.388;8.116;2023-04-03T00:48:18;1.57;;;0.60;;
20241;SDS011;10279;46.388;8.116;2023-04-03T00:50:47;0.60;;;0.60;;
20241;SDS011;10279;46.388;8.116;2023-04-03T00:53:19;1.13;;;0.77;;
20241;SDS011;10279;46.388;8.116;2023-04-03T00:55:48;0.70;;;0.60;;
20241;SDS011;10279;46.388;8.116;2023-04-03T00:58:17;3.87;;;1.00;;
20241;SDS011;10279;46.388;8.116;2023-04-03T01:00:48;1.03;;;0.93;;
20241;SDS011;10279;46.388;8.116;2023-04-03T01:03:22;1.50;;;0.77;;
20241;SDS011;10279;46.388;8.116;2023-04-03T01:05:49;0.70;;;0.70;;
20241;SDS011;10279;46.388;8.116;2023-04-03T01:08:17;0.77;;;0.77;;
20241;SDS011;10279;46.388;8.116;2023-04-03T01:10:45;0.67;;;0.67;;
20241;SDS011;10279;46.388;8.116;2023-04-03T01:13:20;2.80;;;1.00;;
20241;SDS011;10279;46.388;8.116;2023-04-03T01:15:49;0.60;;;0.60;;
20241;SDS011;10279;46.388;8.116;2023-04-03T01:18:16;1.80;;;0.90;;
20241;SDS011;10279;46.388;8.116;2023-04-03T01:20:50;0.80;;;0.80;;
20241;SDS011;10279;46.388;8.116;2023-04-03T01:23:32;1.23;;;0.77;;
20241;SDS011;10279;46.388;8.116;2023-04-03T01:26:00;1.60;;;0.80;;
20241;SDS011;10279;46.388;8.116;2023-04-03T01:28:29;0.97;;;0.97;;
20241;SDS011;10279;46.388;8.116;2023-04-03T01:31:16;0.73;;;0.70;;
20241;SDS011;10279;46.388;8.116;2023-04-03T01:33:46;0.90;;;0.83;;
20241;SDS011;10279;46.388;8.116;2023-04-03T01:36:15;2.77;;;0.70;;
20241;SDS011;10279;46.388;8.116;2023-04-03T01:38:43;1.13;;;0.90;;
20241;SDS011;10279;46.388;8.116;2023-04-03T01:41:10;0.60;;;0.60;;
20241;SDS011;10279;46.388;8.116;2023-04-03T01:43:38;1.27;;;0.80;;
20241;SDS011;10279;46.388;8.116;2023-04-03T01:46:05;0.80;;;0.80;;
20241;SDS011;10279;46.388;8.116;2023-04-03T01:48:34;1.03;;;0.93;;
20241;SDS011;10279;46.388;8.116;2023-04-03T01:51:01;1.27;;;0.70;;
20241;SDS011;10279;46.388;8.116;2023-04-03T01:53:29;0.90;;;0.80;;
20241;SDS011;10279;46.388;8.116;2023-04-03T01:55:57;1.00;;;0.90;;
20241;SDS011;10279;46.388;8.116;2023-04-03T01:58:24;0.80;;;0.80;;
20241;SDS011;10279;46.388;8.116;2023-04-03T02:00:52;1.10;;;0.80;;
20241;SDS011;10279;46.388;8.116;2023-04-03T02:03:20;2.30;;;1.00;;
20241;SDS011;10279;46.388;8.116;2023-04-03T02:05:48;1.20;;;0.97;;
20241;SDS011;10279;46.388;8.116;2023-04-03T02:08:15;0.80;;;0.80;;
20241;SDS011;10279;46.388;8.116;2023-04-03T02:10:46;1.67;;;1.13;;
20241;SDS011;10279;46.388;8.116;2023-04-03T02:13:14;1.03;;;0.97;;
20241;SDS011;10279;46.388;8.116;2023-04-03T02:15:41;1.13;;;0.87;;
20241;SDS011;10279;46.388;8.116;2023-04-03T02:18:09;1.27;;;0.90;;
20241;SDS011;10279;46.388;8.116;2023-04-03T02:20:36;0.90;;;0.73;;
20241;SDS011;10279;46.388;8.116;2023-04-03T02:23:05;1.43;;;0.93;;
20241;SDS011;10279;46.388;8.116;2023-04-03T02:25:32;0.80;;;0.80;;
20241;SDS011;10279;46.388;8.116;2023-04-03T02:28:03;0.90;;;0.90;;
20241;SDS011;10279;46.388;8.116;2023-04-03T02:30:31;1.50;;;0.90;;
20241;SDS011;10279;46.388;8.116;2023-04-03T02:32:58;0.90;;;0.87;;
20241;SDS011;10279;46.388;8.116;2023-04-03T02:35:26;2.90;;;0.70;;
20241;SDS011;10279;46.388;8.116;2023-04-03T02:37:53;1.00;;;0.80;;
20241;SDS011;10279;46.388;8.116;2023-04-03T02:40:22;0.70;;;0.70;;
20241;SDS011;10279;46.388;8.116;2023-04-03T02:42:49;1.00;;;0.93;;
20241;SDS011;10279;46.388;8.116;2023-04-03T02:45:17;1.50;;;0.87;;
20241;SDS011;10279;46.388;8.116;2023-04-03T02:47:44;1.47;;;1.20;;
20241;SDS011;10279;46.388;8.116;2023-04-03T02:50:14;0.97;;;0.80;;
20241;SDS011;10279;46.388;8.116;2023-04-03T02:52:42;1.63;;;1.10;;
20241;SDS011;10279;46.388;8.116;2023-04-03T02:55:12;0.73;;;0.73;;
20241;SDS011;10279;46.388;8.116;2023-04-03T02:57:41;1.20;;;1.10;;
20241;SDS011;10279;46.388;8.116;2023-04-03T03:00:08;1.60;;;1.10;;
20241;SDS011;10279;46.388;8.116;2023-04-03T03:02:36;1.10;;;1.00;;
20241;SDS011;10279;46.388;8.116;2023-04-03T03:05:03;1.20;;;1.10;;
20241;SDS011;10279;46.388;8.116;2023-04-03T03:07:32;1.63;;;1.10;;
20241;SDS011;10279;46.388;8.116;2023-04-03T03:10:00;1.70;;;1.60;;
20241;SDS011;10279;46.388;8.116;2023-04-03T03:12:27;1.13;;;1.03;;
20241;SDS011;10279;46.388;8.116;2023-04-03T03:14:57;1.60;;;1.23;;
20241;SDS011;10279;46.388;8.116;2023-04-03T03:17:25;1.67;;;1.10;;
20241;SDS011;10279;46.388;8.116;2023-04-03T03:19:53;2.07;;;1.50;;
20241;SDS011;10279;46.388;8.116;2023-04-03T03:22:20;3.37;;;1.57;;
20241;SDS011;10279;46.388;8.116;2023-04-03T03:24:48;2.03;;;1.90;;
20241;SDS011;10279;46.388;8.116;2023-04-03T03:27:15;1.30;;;1.20;;
20241;SDS011;10279;46.388;8.116;2023-04-03T03:29:43;1.53;;;1.40;;
20241;SDS011;10279;46.388;8.116;2023-04-03T03:32:11;1.23;;;1.13;;
20241;SDS011;10279;46.388;8.116;2023-04-03T03:34:38;1.50;;;1.40;;
20241;SDS011;10279;46.388;8.116;2023-04-03T03:37:06;1.27;;;1.17;;
20241;SDS011;10279;46.388;8.116;2023-04-03T03:39:33;2.20;;;1.30;;
20241;SDS011;10279;46.388;8.116;2023-04-03T03:42:01;2.10;;;1.40;;
20241;SDS011;10279;46.388;8.116;2023-04-03T03:44:29;1.77;;;1.50;;
20241;SDS011;10279;46.388;8.116;2023-04-03T03:46:56;1.77;;;1.43;;
20241;SDS011;10279;46.388;8.116;2023-04-03T03:49:24;1.70;;;1.60;;
20241;SDS011;10279;46.388;8.116;2023-04-03T03:51:51;1.37;;;1.27;;
20241;SDS011;10279;46.388;8.116;2023-04-03T03:54:19;1.67;;;1.13;;
20241;SDS011;10279;46.388;8.116;2023-04-03T03:56:46;1.47;;;1.27;;
20241;SDS011;10279;46.388;8.116;2023-04-03T03:59:14;2.23;;;1.37;;
20241;SDS011;10279;46.388;8.116;2023-04-03T04:01:43;2.27;;;1.90;;
20241;SDS011;10279;46.388;8.116;2023-04-03T04:04:10;1.43;;;1.10;;
20241;SDS011;10279;46.388;8.116;2023-04-03T04:06:38;2.70;;;1.47;;
20241;SDS011;10279;46.388;8.116;2023-04-03T04:09:05;1.43;;;1.33;;
20241;SDS011;10279;46.388;8.116;2023-04-03T04:11:33;3.03;;;1.87;;
20241;SDS011;10279;46.388;8.116;2023-04-03T04:14:00;2.70;;;2.23;;
20241;SDS011;10279;46.388;8.116;2023-04-03T04:16:28;1.80;;;1.70;;
20241;SDS011;10279;46.388;8.116;2023-04-03T04:18:55;2.33;;;2.10;;
20241;SDS011;10279;46.388;8.116;2023-04-03T04:21:23;2.10;;;1.83;;
20241;SDS011;10279;46.388;8.116;2023-04-03T04:23:50;3.30;;;1.93;;
20241;SDS011;10279;46.388;8.116;2023-04-03T04:26:18;2.57;;;2.13;;
20241;SDS011;10279;46.388;8.116;2023-04-03T04:28:46;3.87;;;1.87;;
20241;SDS011;10279;46.388;8.116;2023-04-03T04:31:13;4.17;;;2.30;;
20241;SDS011;10279;46.388;8.116;2023-04-03T04:33:41;2.20;;;1.70;;
20241;SDS011;10279;46.388;8.116;2023-04-03T04:36:08;3.17;;;1.93;;
20241;SDS011;10279;46.388;8.116;2023-04-03T04:38:36;2.00;;;1.40;;
20241;SDS011;10279;46.388;8.116;2023-04-03T04:41:04;4.03;;;1.60;;
20241;SDS011;10279;46.388;8.116;2023-04-03T04:43:32;2.20;;;1.50;;
20241;SDS011;10279;46.388;8.116;2023-04-03T04:46:03;1.87;;;1.50;;
20241;SDS011;10279;46.388;8.116;2023-04-03T04:48:31;4.50;;;1.83;;
20241;SDS011;10279;46.388;8.116;2023-04-03T04:50:58;2.70;;;1.63;;
20241;SDS011;10279;46.388;8.116;2023-04-03T04:53:26;3.07;;;1.40;;
20241;SDS011;10279;46.388;8.116;2023-04-03T04:55:54;2.30;;;1.70;;
20241;SDS011;10279;46.388;8.116;2023-04-03T04:58:21;3.77;;;2.00;;
20241;SDS011;10279;46.388;8.116;2023-04-03T05:00:49;2.37;;;1.43;;
20241;SDS011;10279;46.388;8.116;2023-04-03T05:03:16;1.57;;;1.47;;
20241;SDS011;10279;46.388;8.116;2023-04-03T05:05:43;4.83;;;1.93;;
20241;SDS011;10279;46.388;8.116;2023-04-03T05:08:11;1.90;;;1.50;;
20241;SDS011;10279;46.388;8.116;2023-04-03T05:10:39;4.30;;;1.50;;
20241;SDS011;10279;46.388;8.116;2023-04-03T05:13:07;2.20;;;1.47;;
20241;SDS011;10279;46.388;8.116;2023-04-03T05:15:35;3.30;;;1.40;;
20241;SDS011;10279;46.388;8.116;2023-04-03T05:18:03;2.00;;;1.80;;
20241;SDS011;10279;46.388;8.116;2023-04-03T05:20:31;1.70;;;1.60;;
20241;SDS011;10279;46.388;8.116;2023-04-03T05:22:59;1.90;;;1.70;;
20241;SDS011;10279;46.388;8.116;2023-04-03T05:25:27;3.93;;;2.17;;
20241;SDS011;10279;46.388;8.116;2023-04-03T05:27:54;1.90;;;1.70;;
20241;SDS011;10279;46.388;8.116;2023-04-03T05:30:22;3.10;;;1.93;;
20241;SDS011;10279;46.388;8.116;2023-04-03T05:32:49;2.83;;;2.27;;
20241;SDS011;10279;46.388;8.116;2023-04-03T05:35:17;2.60;;;1.90;;
20241;SDS011;10279;46.388;8.116;2023-04-03T05:37:45;2.40;;;1.97;;
20241;SDS011;10279;46.388;8.116;2023-04-03T05:40:13;2.37;;;1.90;;
20241;SDS011;10279;46.388;8.116;2023-04-03T05:42:44;2.23;;;2.03;;
20241;SDS011;10279;46.388;8.116;2023-04-03T05:45:11;2.70;;;2.20;;
20241;SDS011;10279;46.388;8.116;2023-04-03T05:47:39;3.57;;;2.20;;
20241;SDS011;10279;46.388;8.116;2023-04-03T05:50:06;2.40;;;2.20;;
20241;SDS011;10279;46.388;8.116;2023-04-03T05:52:38;2.60;;;2.20;;
20241;SDS011;10279;46.388;8.116;2023-04-03T05:55:07;3.37;;;2.20;;
20241;SDS011;10279;46.388;8.116;2023-04-03T05:57:35;2.77;;;2.27;;
20241;SDS011;10279;46.388;8.116;2023-04-03T06:00:04;2.17;;;1.97;;
20241;SDS011;10279;46.388;8.116;2023-04-03T06:02:32;3.40;;;2.03;;
20241;SDS011;10279;46.388;8.116;2023-04-03T06:05:00;4.17;;;2.27;;
20241;SDS011;10279;46.388;8.116;2023-04-03T06:07:27;3.97;;;2.27;;
20241;SDS011;10279;46.388;8.116;2023-04-03T06:09:55;2.93;;;2.03;;
20241;SDS011;10279;46.388;8.116;2023-04-03T06:12:23;2.80;;;2.50;;
20241;SDS011;10279;46.388;8.116;2023-04-03T06:14:51;2.00;;;1.80;;
20241;SDS011;10279;46.388;8.116;2023-04-03T06:17:18;4.30;;;2.03;;
20241;SDS011;10279;46.388;8.116;2023-04-03T06:19:46;2.33;;;1.80;;
20241;SDS011;10279;46.388;8.116;2023-04-03T06:22:14;2.67;;;1.90;;
20241;SDS011;10279;46.388;8.116;2023-04-03T06:24:42;2.00;;;1.90;;
20241;SDS011;10279;46.388;8.116;2023-04-03T06:27:10;2.83;;;2.00;;
20241;SDS011;10279;46.388;8.116;2023-04-03T06:29:38;1.93;;;1.77;;
20241;SDS011;10279;46.388;8.116;2023-04-03T06:32:06;2.30;;;1.93;;
20241;SDS011;10279;46.388;8.116;2023-04-03T06:34:33;2.10;;;2.00;;
20241;SDS011;10279;46.388;8.116;2023-04-03T06:37:01;2.30;;;2.10;;
20241;SDS011;10279;46.388;8.116;2023-04-03T06:39:29;2.23;;;2.00;;
20241;SDS011;10279;46.388;8.116;2023-04-03T06:41:56;3.03;;;2.03;;
20241;SDS011;10279;46.388;8.116;2023-04-03T06:44:24;2.33;;;2.13;;
20241;SDS011;10279;46.388;8.116;2023-04-03T06:46:51;2.20;;;2.00;;
20241;SDS011;10279;46.388;8.116;2023-04-03T06:49:20;2.43;;;2.23;;
20241;SDS011;10279;46.388;8.116;2023-04-03T06:51:48;2.57;;;2.20;;
20241;SDS011;10279;46.388;8.116;2023-04-03T06:54:16;2.53;;;2.07;;
20241;SDS011;10279;46.388;8.116;2023-04-03T06:56:44;2.60;;;2.33;;
20241;SDS011;10279;46.388;8.116;2023-04-03T06:59:12;3.60;;;2.30;;
20241;SDS011;10279;46.388;8.116;2023-04-03T07:01:41;2.13;;;2.00;;
20241;SDS011;10279;46.388;8.116;2023-04-03T07:04:08;4.47;;;2.30;;
20241;SDS011;10279;46.388;8.116;2023-04-03T07:06:36;2.47;;;2.20;;
20241;SDS011;10279;46.388;8.116;2023-04-03T07:09:04;2.20;;;2.00;;
20241;SDS011;10279;46.388;8.116;2023-04-03T07:11:31;2.40;;;2.20;;
20241;SDS011;10279;46.388;8.116;2023-04-03T07:13:59;2.70;;;2.13;;
20241;SDS011;10279;46.388;8.116;2023-04-03T07:16:26;2.37;;;2.17;;
20241;SDS011;10279;46.388;8.116;2023-04-03T07:18:54;3.47;;;1.90;;
20241;SDS011;10279;46.388;8.116;2023-04-03T07:21:21;2.60;;;2.40;;
20241;SDS011;10279;46.388;8.116;2023-04-03T07:23:49;2.40;;;2.20;;
20241;SDS011;10279;46.388;8.116;2023-04-03T07:26:17;2.50;;;2.30;;
20241;SDS011;10279;46.388;8.116;2023-04-03T07:28:44;2.47;;;2.27;;
20241;SDS011;10279;46.388;8.116;2023-04-03T07:31:15;2.60;;;2.40;;
20241;SDS011;10279;46.388;8.116;2023-04-03T07:33:44;2.23;;;2.07;;
20241;SDS011;10279;46.388;8.116;2023-04-03T07:36:16;2.10;;;1.90;;
20241;SDS011;10279;46.388;8.116;2023-04-03T07:38:44;2.53;;;1.97;;
20241;SDS011;10279;46.388;8.116;2023-04-03T07:41:15;2.60;;;2.40;;
20241;SDS011;10279;46.388;8.116;2023-04-03T07:43:44;2.40;;;2.20;;
20241;SDS011;10279;46.388;8.116;2023-04-03T07:46:12;3.23;;;2.13;;
20241;SDS011;10279;46.388;8.116;2023-04-03T07:48:40;4.07;;;2.10;;
20241;SDS011;10279;46.388;8.116;2023-04-03T07:51:08;5.43;;;2.40;;
20241;SDS011;10279;46.388;8.116;2023-04-03T07:53:36;1.87;;;1.77;;
20241;SDS011;10279;46.388;8.116;2023-04-03T07:56:03;2.07;;;1.73;;
20241;SDS011;10279;46.388;8.116;2023-04-03T07:58:31;4.20;;;1.87;;
20241;SDS011;10279;46.388;8.116;2023-04-03T08:00:59;4.10;;;1.80;;
20241;SDS011;10279;46.388;8.116;2023-04-03T08:03:27;4.67;;;1.90;;
20241;SDS011;10279;46.388;8.116;2023-04-03T08:05:54;1.30;;;1.20;;
20241;SDS011;10279;46.388;8.116;2023-04-03T08:08:22;3.83;;;2.17;;
20241;SDS011;10279;46.388;8.116;2023-04-03T08:10:50;1.10;;;1.00;;
20241;SDS011;10279;46.388;8.116;2023-04-03T08:13:19;3.17;;;1.40;;
20241;SDS011;10279;46.388;8.116;2023-04-03T08:15:47;1.83;;;1.23;;
20241;SDS011;10279;46.388;8.116;2023-04-03T08:18:15;2.33;;;1.40;;
20241;SDS011;10279;46.388;8.116;2023-04-03T08:20:42;2.77;;;1.30;;
20241;SDS011;10279;46.388;8.116;2023-04-03T08:23:10;0.90;;;0.90;;
20241;SDS011;10279;46.388;8.116;2023-04-03T08:25:38;1.30;;;1.20;;
20241;SDS011;10279;46.388;8.116;2023-04-03T08:28:07;1.10;;;1.00;;
20241;SDS011;10279;46.388;8.116;2023-04-03T08:30:34;0.90;;;0.90;;
20241;SDS011;10279;46.388;8.116;2023-04-03T08:33:02;1.10;;;0.90;;
20241;SDS011;10279;46.388;8.116;2023-04-03T08:35:30;4.83;;;1.30;;
20241;SDS011;10279;46.388;8.116;2023-04-03T08:37:58;1.50;;;1.00;;
20241;SDS011;10279;46.388;8.116;2023-04-03T08:40:25;1.70;;;1.00;;
20241;SDS011;10279;46.388;8.116;2023-04-03T08:48:04;0.80;;;0.80;;
20241;SDS011;10279;46.388;8.116;2023-04-03T08:50:36;0.60;;;0.60;;
20241;SDS011;10279;46.388;8.116;2023-04-03T08:53:05;0.80;;;0.80;;
20241;SDS011;10279;46.388;8.116;2023-04-03T08:55:45;1.20;;;1.10;;
20241;SDS011;10279;46.388;8.116;2023-04-03T08:58:26;0.80;;;0.80;;
20241;SDS011;10279;46.388;8.116;2023-04-03T09:00:57;1.90;;;0.90;;
20241;SDS011;10279;46.388;8.116;2023-04-03T09:03:28;0.70;;;0.70;;
20241;SDS011;10279;46.388;8.116;2023-04-03T09:08:31;0.50;;;0.50;;
20241;SDS011;10279;46.388;8.116;2023-04-03T09:19:33;0.40;;;0.40;;
20241;SDS011;10279;46.388;8.116;2023-04-03T09:21:52;0.57;;;0.30;;
20241;SDS011;10279;46.388;8.116;2023-04-03T09:24:20;0.40;;;0.40;;
20241;SDS011;10279;46.388;8.116;2023-04-03T09:29:18;0.30;;;0.30;;
20241;SDS011;10279;46.388;8.116;2023-04-03T09:31:47;0.30;;;0.30;;
20241;SDS011;10279;46.388;8.116;2023-04-03T09:36:44;3.30;;;0.30;;
20241;SDS011;10279;46.388;8.116;2023-04-03T09:39:13;0.20;;;0.20;;
20241;SDS011;10279;46.388;8.116;2023-04-03T09:41:41;0.20;;;0.20;;
20241;SDS011;10279;46.388;8.116;2023-04-03T09:44:22;1.03;;;0.30;;
20241;SDS011;10279;46.388;8.116;2023-04-03T09:46:50;3.37;;;0.50;;
20241;SDS011;10279;46.388;8.116;2023-04-03T09:49:18;0.57;;;0.40;;
20241;SDS011;10279;46.388;8.116;2023-04-03T09:51:46;0.30;;;0.30;;
20241;SDS011;10279;46.388;8.116;2023-04-03T09:54:34;0.30;;;0.30;;
20241;SDS011;10279;46.388;8.116;2023-04-03T09:57:08;3.00;;;0.50;;
20241;SDS011;10279;46.388;8.116;2023-04-03T09:59:37;0.40;;;0.40;;
20241;SDS011;10279;46.388;8.116;2023-04-03T10:04:40;0.13;;;0.13;;
20241;SDS011;10279;46.388;8.116;2023-04-03T10:09:58;0.23;;;0.23;;
20241;SDS011;10279;46.388;8.116;2023-04-03T10:12:26;0.20;;;0.20;;
20241;SDS011;10279;46.388;8.116;2023-04-03T10:14:54;0.20;;;0.20;;
20241;SDS011;10279;46.388;8.116;2023-04-03T10:22:40;0.53;;;0.20;;
20241;SDS011;10279;46.388;8.116;2023-04-03T10:25:19;0.43;;;0.30;;
20241;SDS011;10279;46.388;8.116;2023-04-03T10:27:56;0.30;;;0.30;;
20241;SDS011;10279;46.388;8.116;2023-04-03T10:33:20;0.40;;;0.40;;
20241;SDS011;10279;46.388;8.116;2023-04-03T10:35:56;0.30;;;0.30;;
20241;SDS011;10279;46.388;8.116;2023-04-03T10:46:42;0.30;;;0.30;;
20241;SDS011;10279;46.388;8.116;2023-04-03T10:52:15;0.20;;;0.20;;
20241;SDS011;10279;46.388;8.116;2023-04-03T10:57:52;0.33;;;0.20;;
20241;SDS011;10279;46.388;8.116;2023-04-03T11:00:22;0.20;;;0.20;;
20241;SDS011;10279;46.388;8.116;2023-04-03T11:02:54;1.43;;;0.67;;
20241;SDS011;10279;46.388;8.116;2023-04-03T11:10:49;0.30;;;0.30;;
20241;SDS011;10279;46.388;8.116;2023-04-03T11:13:27;0.77;;;0.30;;
20241;SDS011;10279;46.388;8.116;2023-04-03T11:15:58;0.17;;;0.17;;
20241;SDS011;10279;46.388;8.116;2023-04-03T11:18:32;0.20;;;0.20;;
20241;SDS011;10279;46.388;8.116;2023-04-03T11:24:04;2.03;;;1.00;;
20241;SDS011;10279;46.388;8.116;2023-04-03T11:26:35;0.30;;;0.30;;
20241;SDS011;10279;46.388;8.116;2023-04-03T11:29:06;2.30;;;0.30;;
20241;SDS011;10279;46.388;8.116;2023-04-03T11:32:11;0.10;;;0.10;;
20241;SDS011;10279;46.388;8.116;2023-04-03T11:36:58;0.13;;;0.13;;
20241;SDS011;10279;46.388;8.116;2023-04-03T11:39:30;0.27;;;0.20;;
20241;SDS011;10279;46.388;8.116;2023-04-03T11:42:19;0.10;;;0.10;;
20241;SDS011;10279;46.388;8.116;2023-04-03T11:45:14;0.10;;;0.10;;
20241;SDS011;10279;46.388;8.116;2023-04-03T11:47:46;0.30;;;0.23;;
20241;SDS011;10279;46.388;8.116;2023-04-03T11:52:58;2.83;;;0.10;;
20241;SDS011;10279;46.388;8.116;2023-04-03T12:16:03;0.20;;;0.20;;
20241;SDS011;10279;46.388;8.116;2023-04-03T12:24:00;1.27;;;0.20;;
20241;SDS011;10279;46.388;8.116;2023-04-03T12:26:48;0.20;;;0.20;;
20241;SDS011;10279;46.388;8.116;2023-04-03T12:29:21;0.10;;;0.10;;
20241;SDS011;10279;46.388;8.116;2023-04-03T12:42:49;0.10;;;0.10;;
20241;SDS011;10279;46.388;8.116;2023-04-03T12:45:21;0.10;;;0.10;;
20241;SDS011;10279;46.388;8.116;2023-04-03T12:47:49;0.40;;;0.17;;
20241;SDS011;10279;46.388;8.116;2023-04-03T12:50:24;0.15;;;0.15;;
20241;SDS011;10279;46.388;8.116;2023-04-03T12:52:54;1.38;;;0.20;;
20241;SDS011;10279;46.388;8.116;2023-04-03T12:55:23;0.20;;;0.20;;
20241;SDS011;10279;46.388;8.116;2023-04-03T12:57:51;0.20;;;0.20;;
20241;SDS011;10279;46.388;8.116;2023-04-03T13:00:36;0.20;;;0.20;;
20241;SDS011;10279;46.388;8.116;2023-04-03T13:03:06;1.87;;;0.20;;
20241;SDS011;10279;46.388;8.116;2023-04-03T13:05:46;0.20;;;0.20;;
20241;SDS011;10279;46.388;8.116;2023-04-03T13:08:14;0.20;;;0.20;;
20241;SDS011;10279;46.388;8.116;2023-04-03T13:10:48;0.28;;;0.10;;
20241;SDS011;10279;46.388;8.116;2023-04-03T13:13:16;0.10;;;0.10;;
20241;SDS011;10279;46.388;8.116;2023-04-03T13:15:45;0.20;;;0.20;;
20241;SDS011;10279;46.388;8.116;2023-04-03T13:18:25;0.10;;;0.10;;
20241;SDS011;10279;46.388;8.116;2023-04-03T13:20:53;0.10;;;0.10;;
20241;SDS011;10279;46.388;8.116;2023-04-03T13:23:24;0.30;;;0.30;;
20241;SDS011;10279;46.388;8.116;2023-04-03T13:25:52;0.10;;;0.10;;
20241;SDS011;10279;46.388;8.116;2023-04-03T13:28:21;0.28;;;0.10;;
20241;SDS011;10279;46.388;8.116;2023-04-03T13:31:07;0.20;;;0.20;;
20241;SDS011;10279;46.388;8.116;2023-04-03T13:33:37;0.70;;;0.20;;
20241;SDS011;10279;46.388;8.116;2023-04-03T13:36:16;0.30;;;0.30;;
20241;SDS011;10279;46.388;8.116;2023-04-03T13:38:44;1.02;;;0.10;;
20241;SDS011;10279;46.388;8.116;2023-04-03T13:41:23;0.10;;;0.10;;
20241;SDS011;10279;46.388;8.116;2023-04-03T13:43:50;0.20;;;0.20;;
20241;SDS011;10279;46.388;8.116;2023-04-03T13:46:26;2.05;;;0.20;;
20241;SDS011;10279;46.388;8.116;2023-04-03T13:48:55;0.20;;;0.20;;
20241;SDS011;10279;46.388;8.116;2023-04-03T13:51:27;0.20;;;0.20;;
20241;SDS011;10279;46.388;8.116;2023-04-03T13:53:57;0.20;;;0.20;;
20241;SDS011;10279;46.388;8.116;2023-04-03T13:56:35;0.10;;;0.10;;
20241;SDS011;10279;46.388;8.116;2023-04-03T14:01:43;0.20;;;0.20;;
20241;SDS011;10279;46.388;8.116;2023-04-03T14:04:17;0.20;;;0.20;;
20241;SDS011;10279;46.388;8.116;2023-04-03T14:06:45;0.10;;;0.10;;
20241;SDS011;10279;46.388;8.116;2023-04-03T14:09:14;0.28;;;0.28;;
20241;SDS011;10279;46.388;8.116;2023-04-03T14:11:42;1.35;;;0.20;;
20241;SDS011;10279;46.388;8.116;2023-04-03T14:14:14;0.85;;;0.28;;
20241;SDS011;10279;46.388;8.116;2023-04-03T14:16:44;0.15;;;0.15;;
20241;SDS011;10279;46.388;8.116;2023-04-03T14:19:46;0.40;;;0.20;;
20241;SDS011;10279;46.388;8.116;2023-04-03T14:22:17;0.30;;;0.20;;
20241;SDS011;10279;46.388;8.116;2023-04-03T14:24:45;0.35;;;0.30;;
20241;SDS011;10279;46.388;8.116;2023-04-03T14:27:15;0.65;;;0.60;;
20241;SDS011;10279;46.388;8.116;2023-04-03T14:29:43;0.20;;;0.20;;
20241;SDS011;10279;46.388;8.116;2023-04-03T14:32:12;0.20;;;0.20;;
20241;SDS011;10279;46.388;8.116;2023-04-03T14:34:41;0.20;;;0.20;;
20241;SDS011;10279;46.388;8.116;2023-04-03T14:37:10;0.60;;;0.50;;
20241;SDS011;10279;46.388;8.116;2023-04-03T14:39:38;0.77;;;0.38;;
20241;SDS011;10279;46.388;8.116;2023-04-03T14:42:05;0.30;;;0.30;;
20241;SDS011;10279;46.388;8.116;2023-04-03T14:44:33;0.20;;;0.20;;
20241;SDS011;10279;46.388;8.116;2023-04-03T14:47:01;0.38;;;0.20;;
20241;SDS011;10279;46.388;8.116;2023-04-03T14:49:28;0.30;;;0.30;;
20241;SDS011;10279;46.388;8.116;2023-04-03T14:51:57;0.20;;;0.20;;
20241;SDS011;10279;46.388;8.116;2023-04-03T14:54:25;0.30;;;0.30;;
20241;SDS011;10279;46.388;8.116;2023-04-03T14:56:55;0.52;;;0.52;;
20241;SDS011;10279;46.388;8.116;2023-04-03T14:59:24;0.28;;;0.20;;
20241;SDS011;10279;46.388;8.116;2023-04-03T15:01:52;0.70;;;0.30;;
20241;SDS011;10279;46.388;8.116;2023-04-03T15:04:20;1.15;;;0.35;;
20241;SDS011;10279;46.388;8.116;2023-04-03T15:06:48;0.20;;;0.20;;
20241;SDS011;10279;46.388;8.116;2023-04-03T15:09:22;0.30;;;0.30;;
20241;SDS011;10279;46.388;8.116;2023-04-03T15:11:50;0.20;;;0.20;;
20241;SDS011;10279;46.388;8.116;2023-04-03T15:14:18;0.30;;;0.30;;
20241;SDS011;10279;46.388;8.116;2023-04-03T15:17:03;0.30;;;0.30;;
20241;SDS011;10279;46.388;8.116;2023-04-03T15:19:32;0.20;;;0.20;;
20241;SDS011;10279;46.388;8.116;2023-04-03T15:22:03;0.30;;;0.30;;
20241;SDS011;10279;46.388;8.116;2023-04-03T15:24:31;0.35;;;0.35;;
20241;SDS011;10279;46.388;8.116;2023-04-03T15:26:59;0.30;;;0.30;;
20241;SDS011;10279;46.388;8.116;2023-04-03T15:29:29;0.28;;;0.28;;
20241;SDS011;10279;46.388;8.116;2023-04-03T15:31:56;0.55;;;0.50;;
20241;SDS011;10279;46.388;8.116;2023-04-03T15:34:23;0.32;;;0.30;;
20241;SDS011;10279;46.388;8.116;2023-04-03T15:36:54;0.30;;;0.30;;
20241;SDS011;10279;46.388;8.116;2023-04-03T15:39:21;0.35;;;0.35;;
20241;SDS011;10279;46.388;8.116;2023-04-03T15:41:49;0.30;;;0.30;;
20241;SDS011;10279;46.388;8.116;2023-04-03T15:44:18;0.40;;;0.40;;
20241;SDS011;10279;46.388;8.116;2023-04-03T15:46:46;0.40;;;0.40;;
20241;SDS011;10279;46.388;8.116;2023-04-03T15:49:15;0.30;;;0.30;;
20241;SDS011;10279;46.388;8.116;2023-04-03T15:51:43;0.40;;;0.40;;
20241;SDS011;10279;46.388;8.116;2023-04-03T15:54:11;0.32;;;0.32;;
20241;SDS011;10279;46.388;8.116;2023-04-03T15:56:38;0.40;;;0.40;;
20241;SDS011;10279;46.388;8.116;2023-04-03T15:59:06;2.05;;;0.40;;
20241;SDS011;10279;46.388;8.116;2023-04-03T16:01:33;0.40;;;0.40;;
20241;SDS011;10279;46.388;8.116;2023-04-03T16:04:01;0.33;;;0.33;;
20241;SDS011;10279;46.388;8.116;2023-04-03T16:06:28;0.50;;;0.50;;
20241;SDS011;10279;46.388;8.116;2023-04-03T16:08:57;1.50;;;0.40;;
20241;SDS011;10279;46.388;8.116;2023-04-03T16:11:24;0.93;;;0.67;;
20241;SDS011;10279;46.388;8.116;2023-04-03T16:13:53;0.40;;;0.40;;
20241;SDS011;10279;46.388;8.116;2023-04-03T16:16:21;0.70;;;0.60;;
20241;SDS011;10279;46.388;8.116;2023-04-03T16:18:48;1.27;;;1.17;;
20241;SDS011;10279;46.388;8.116;2023-04-03T16:21:16;0.50;;;0.50;;
20241;SDS011;10279;46.388;8.116;2023-04-03T16:23:44;0.50;;;0.50;;
20241;SDS011;10279;46.388;8.116;2023-04-03T16:26:12;0.50;;;0.50;;
20241;SDS011;10279;46.388;8.116;2023-04-03T16:28:40;0.53;;;0.53;;
20241;SDS011;10279;46.388;8.116;2023-04-03T16:31:08;1.70;;;0.60;;
20241;SDS011;10279;46.388;8.116;2023-04-03T16:33:36;2.50;;;0.50;;
20241;SDS011;10279;46.388;8.116;2023-04-03T16:36:04;0.50;;;0.50;;
20241;SDS011;10279;46.388;8.116;2023-04-03T16:38:31;0.40;;;0.40;;
20241;SDS011;10279;46.388;8.116;2023-04-03T16:40:59;0.53;;;0.47;;
20241;SDS011;10279;46.388;8.116;2023-04-03T16:43:31;0.70;;;0.70;;